sensor_id;sensor_type;location;lat;lon;timestamp;pressure;altitude;pressure_sealevel;temperature;humidity
57000;BME280;42891;50.006;21.964;2023-02-20T00:03:48;99307.19;;;1.51;80.28
57000;BME280;42891;50.006;21.964;2023-02-20T00:07:48;99301.63;;;1.40;80.36
57000;BME280;42891;50.006;21.964;2023-02-20T00:11:48;99305.88;;;1.42;80.55
57000;BME280;42891;50.006;21.964;2023-02-20T00:15:48;99311.00;;;1.44;80.18
57000;BME280;42891;50.006;21.964;2023-02-20T00:19:49;99287.22;;;1.32;81.00
57000;BME280;42891;50.006;21.964;2023-02-20T00:23:49;99302.59;;;1.18;80.95
57000;BME280;42891;50.006;21.964;2023-02-20T00:27:49;99306.56;;;1.27;81.37
57000;BME280;42891;50.006;21.964;2023-02-20T00:31:55;99306.19;;;1.34;81.25
57000;BME280;42891;50.006;21.964;2023-02-20T00:35:56;99304.47;;;1.35;81.19
57000;BME280;42891;50.006;21.964;2023-02-20T00:39:56;99316.13;;;1.26;81.43
57000;BME280;42891;50.006;21.964;2023-02-20T00:43:56;99268.19;;;0.73;81.83
57000;BME280;42891;50.006;21.964;2023-02-20T00:47:57;99298.59;;;1.11;81.89
57000;BME280;42891;50.006;21.964;2023-02-20T00:51:57;99322.00;;;1.11;81.76
57000;BME280;42891;50.006;21.964;2023-02-20T00:55:57;99320.19;;;1.13;81.85
57000;BME280;42891;50.006;21.964;2023-02-20T00:59:57;99304.56;;;0.94;81.83
57000;BME280;42891;50.006;21.964;2023-02-20T01:03:58;99279.50;;;1.12;81.68
57000;BME280;42891;50.006;21.964;2023-02-20T01:07:58;99306.22;;;1.15;80.87
57000;BME280;42891;50.006;21.964;2023-02-20T01:11:58;99308.72;;;1.36;80.66
57000;BME280;42891;50.006;21.964;2023-02-20T01:15:59;99289.41;;;1.23;80.64
57000;BME280;42891;50.006;21.964;2023-02-20T01:19:59;99313.94;;;1.36;81.04
57000;BME280;42891;50.006;21.964;2023-02-20T01:23:59;99323.59;;;1.34;80.88
57000;BME280;42891;50.006;21.964;2023-02-20T01:27:59;99314.16;;;1.31;80.54
57000;BME280;42891;50.006;21.964;2023-02-20T01:32:00;99307.13;;;1.14;80.96
57000;BME280;42891;50.006;21.964;2023-02-20T01:36:00;99322.88;;;1.30;80.24
57000;BME280;42891;50.006;21.964;2023-02-20T01:40:01;99313.47;;;1.28;80.21
57000;BME280;42891;50.006;21.964;2023-02-20T01:44:01;99319.84;;;1.21;80.38
57000;BME280;42891;50.006;21.964;2023-02-20T01:48:02;99319.28;;;1.33;80.32
57000;BME280;42891;50.006;21.964;2023-02-20T01:52:16;99325.66;;;1.07;80.93
57000;BME280;42891;50.006;21.964;2023-02-20T01:56:18;99302.91;;;1.12;81.22
57000;BME280;42891;50.006;21.964;2023-02-20T02:00:21;99319.34;;;1.12;80.62
57000;BME280;42891;50.006;21.964;2023-02-20T02:04:23;99313.59;;;1.25;81.03
57000;BME280;42891;50.006;21.964;2023-02-20T02:08:25;99280.41;;;0.92;81.18
57000;BME280;42891;50.006;21.964;2023-02-20T02:12:25;99297.59;;;0.94;82.31
57000;BME280;42891;50.006;21.964;2023-02-20T02:16:41;99311.81;;;1.06;81.98
57000;BME280;42891;50.006;21.964;2023-02-20T02:39:22;99307.31;;;1.29;81.33
57000;BME280;42891;50.006;21.964;2023-02-20T02:43:34;99299.47;;;1.11;81.01
57000;BME280;42891;50.006;21.964;2023-02-20T02:47:50;99297.38;;;1.19;80.77
57000;BME280;42891;50.006;21.964;2023-02-20T02:51:54;99306.31;;;1.12;81.29
57000;BME280;42891;50.006;21.964;2023-02-20T02:55:55;99303.88;;;1.09;81.66
57000;BME280;42891;50.006;21.964;2023-02-20T02:59:59;99313.94;;;1.17;82.25
57000;BME280;42891;50.006;21.964;2023-02-20T03:04:02;99310.56;;;1.15;81.66
57000;BME280;42891;50.006;21.964;2023-02-20T03:08:10;99294.66;;;1.02;82.25
57000;BME280;42891;50.006;21.964;2023-02-20T03:12:14;99301.63;;;1.01;82.67
57000;BME280;42891;50.006;21.964;2023-02-20T03:16:18;99295.38;;;1.06;82.96
57000;BME280;42891;50.006;21.964;2023-02-20T03:20:21;99292.56;;;1.10;82.97
57000;BME280;42891;50.006;21.964;2023-02-20T03:24:23;99279.06;;;1.02;82.29
57000;BME280;42891;50.006;21.964;2023-02-20T03:28:32;99294.81;;;1.18;82.45
57000;BME280;42891;50.006;21.964;2023-02-20T03:32:36;99300.47;;;1.28;81.91
57000;BME280;42891;50.006;21.964;2023-02-20T03:41:24;99279.13;;;1.00;82.20
57000;BME280;42891;50.006;21.964;2023-02-20T03:45:46;99295.44;;;1.23;81.44
57000;BME280;42891;50.006;21.964;2023-02-20T03:49:48;99300.72;;;1.22;81.10
57000;BME280;42891;50.006;21.964;2023-02-20T03:53:51;99283.91;;;1.29;80.27
57000;BME280;42891;50.006;21.964;2023-02-20T03:57:55;99274.38;;;1.29;80.00
57000;BME280;42891;50.006;21.964;2023-02-20T04:02:01;99284.41;;;1.56;79.87
57000;BME280;42891;50.006;21.964;2023-02-20T04:06:03;99285.97;;;1.41;79.05
57000;BME280;42891;50.006;21.964;2023-02-20T04:10:08;99272.59;;;1.30;79.43
57000;BME280;42891;50.006;21.964;2023-02-20T04:14:12;99253.91;;;1.22;79.17
57000;BME280;42891;50.006;21.964;2023-02-20T04:18:16;99261.97;;;1.34;78.95
57000;BME280;42891;50.006;21.964;2023-02-20T04:22:21;99279.91;;;1.22;78.84
57000;BME280;42891;50.006;21.964;2023-02-20T04:26:23;99263.31;;;1.24;78.65
57000;BME280;42891;50.006;21.964;2023-02-20T04:30:24;99273.59;;;1.27;78.47
57000;BME280;42891;50.006;21.964;2023-02-20T04:34:24;99263.25;;;1.26;78.46
57000;BME280;42891;50.006;21.964;2023-02-20T04:38:25;99246.25;;;1.18;78.29
57000;BME280;42891;50.006;21.964;2023-02-20T04:42:25;99248.13;;;1.15;77.86
57000;BME280;42891;50.006;21.964;2023-02-20T04:46:26;99243.88;;;1.14;78.31
57000;BME280;42891;50.006;21.964;2023-02-20T04:50:27;99256.00;;;1.13;78.69
57000;BME280;42891;50.006;21.964;2023-02-20T04:54:28;99236.19;;;1.11;78.75
57000;BME280;42891;50.006;21.964;2023-02-20T04:58:28;99222.06;;;0.97;78.89
57000;BME280;42891;50.006;21.964;2023-02-20T05:02:28;99230.13;;;0.91;79.50
57000;BME280;42891;50.006;21.964;2023-02-20T05:06:29;99239.34;;;0.98;79.32
57000;BME280;42891;50.006;21.964;2023-02-20T05:10:30;99212.28;;;0.83;79.69
57000;BME280;42891;50.006;21.964;2023-02-20T05:14:31;99225.34;;;1.01;79.20
57000;BME280;42891;50.006;21.964;2023-02-20T05:18:31;99223.31;;;0.89;79.55
57000;BME280;42891;50.006;21.964;2023-02-20T05:22:32;99184.72;;;0.60;80.23
57000;BME280;42891;50.006;21.964;2023-02-20T05:26:32;99237.34;;;0.84;80.48
57000;BME280;42891;50.006;21.964;2023-02-20T05:30:33;99237.78;;;0.94;80.57
57000;BME280;42891;50.006;21.964;2023-02-20T05:34:33;99218.16;;;0.68;80.63
57000;BME280;42891;50.006;21.964;2023-02-20T05:38:33;99243.19;;;0.90;81.18
57000;BME280;42891;50.006;21.964;2023-02-20T05:42:34;99229.78;;;0.80;81.83
57000;BME280;42891;50.006;21.964;2023-02-20T05:46:39;99222.59;;;0.66;82.02
57000;BME280;42891;50.006;21.964;2023-02-20T05:50:40;99249.75;;;0.79;82.14
57000;BME280;42891;50.006;21.964;2023-02-20T05:54:40;99243.75;;;0.77;81.70
57000;BME280;42891;50.006;21.964;2023-02-20T05:58:42;99257.19;;;0.87;81.89
57000;BME280;42891;50.006;21.964;2023-02-20T06:02:43;99234.16;;;0.79;81.92
57000;BME280;42891;50.006;21.964;2023-02-20T06:06:43;99233.06;;;0.64;82.14
57000;BME280;42891;50.006;21.964;2023-02-20T06:10:44;99276.78;;;0.94;82.00
57000;BME280;42891;50.006;21.964;2023-02-20T06:14:44;99254.66;;;0.85;81.49
57000;BME280;42891;50.006;21.964;2023-02-20T06:18:44;99274.50;;;1.07;81.17
57000;BME280;42891;50.006;21.964;2023-02-20T06:22:46;99279.50;;;1.12;80.80
57000;BME280;42891;50.006;21.964;2023-02-20T06:26:47;99269.16;;;1.10;80.63
57000;BME280;42891;50.006;21.964;2023-02-20T06:30:47;99283.78;;;1.13;80.29
57000;BME280;42891;50.006;21.964;2023-02-20T06:34:48;99255.25;;;1.11;80.14
57000;BME280;42891;50.006;21.964;2023-02-20T06:38:48;99277.09;;;1.26;79.67
57000;BME280;42891;50.006;21.964;2023-02-20T06:42:48;99285.53;;;1.31;79.80
57000;BME280;42891;50.006;21.964;2023-02-20T06:46:49;99275.78;;;1.36;79.00
57000;BME280;42891;50.006;21.964;2023-02-20T06:50:49;99299.22;;;1.54;78.81
57000;BME280;42891;50.006;21.964;2023-02-20T06:54:54;99286.66;;;1.45;78.35
57000;BME280;42891;50.006;21.964;2023-02-20T06:58:55;99278.06;;;1.43;77.93
57000;BME280;42891;50.006;21.964;2023-02-20T07:02:55;99294.88;;;1.55;77.12
57000;BME280;42891;50.006;21.964;2023-02-20T07:06:56;99272.16;;;1.58;77.20
57000;BME280;42891;50.006;21.964;2023-02-20T07:10:56;99271.44;;;1.74;76.86
57000;BME280;42891;50.006;21.964;2023-02-20T07:14:57;99274.88;;;1.74;76.10
57000;BME280;42891;50.006;21.964;2023-02-20T07:18:57;99261.88;;;1.74;75.24
57000;BME280;42891;50.006;21.964;2023-02-20T07:22:58;99274.00;;;1.93;74.71
57000;BME280;42891;50.006;21.964;2023-02-20T07:26:58;99276.47;;;1.96;74.05
57000;BME280;42891;50.006;21.964;2023-02-20T07:30:58;99266.19;;;2.10;73.63
57000;BME280;42891;50.006;21.964;2023-02-20T07:34:58;99262.34;;;2.00;73.72
57000;BME280;42891;50.006;21.964;2023-02-20T07:39:00;99211.97;;;1.83;72.79
57000;BME280;42891;50.006;21.964;2023-02-20T07:43:01;99243.31;;;2.17;71.94
57000;BME280;42891;50.006;21.964;2023-02-20T07:47:01;99256.00;;;2.23;71.60
57000;BME280;42891;50.006;21.964;2023-02-20T07:51:01;99232.25;;;2.29;71.48
57000;BME280;42891;50.006;21.964;2023-02-20T07:55:02;99226.94;;;2.48;71.10
57000;BME280;42891;50.006;21.964;2023-02-20T07:59:02;99222.97;;;2.41;70.10
57000;BME280;42891;50.006;21.964;2023-02-20T08:03:03;99206.31;;;2.44;70.29
57000;BME280;42891;50.006;21.964;2023-02-20T08:07:03;99215.56;;;2.67;69.56
57000;BME280;42891;50.006;21.964;2023-02-20T08:11:06;99185.81;;;2.71;69.85
57000;BME280;42891;50.006;21.964;2023-02-20T08:15:06;99164.78;;;2.74;69.26
57000;BME280;42891;50.006;21.964;2023-02-20T08:19:10;99204.44;;;3.13;69.91
57000;BME280;42891;50.006;21.964;2023-02-20T08:23:19;99243.13;;;3.20;68.58
57000;BME280;42891;50.006;21.964;2023-02-20T08:27:20;99182.78;;;2.79;68.07
57000;BME280;42891;50.006;21.964;2023-02-20T08:31:20;99180.84;;;2.82;67.58
57000;BME280;42891;50.006;21.964;2023-02-20T08:35:22;99205.69;;;3.05;67.59
57000;BME280;42891;50.006;21.964;2023-02-20T08:39:25;99170.69;;;3.10;68.54
57000;BME280;42891;50.006;21.964;2023-02-20T08:43:26;99198.22;;;3.15;67.59
57000;BME280;42891;50.006;21.964;2023-02-20T08:47:26;99175.50;;;3.01;68.14
57000;BME280;42891;50.006;21.964;2023-02-20T08:51:26;99171.44;;;2.96;68.18
57000;BME280;42891;50.006;21.964;2023-02-20T08:55:27;99177.22;;;3.01;66.67
57000;BME280;42891;50.006;21.964;2023-02-20T08:59:30;99162.69;;;3.13;67.54
57000;BME280;42891;50.006;21.964;2023-02-20T09:03:31;99172.88;;;3.01;67.81
57000;BME280;42891;50.006;21.964;2023-02-20T09:07:33;99164.63;;;2.93;67.72
57000;BME280;42891;50.006;21.964;2023-02-20T09:11:33;99139.97;;;2.99;67.72
57000;BME280;42891;50.006;21.964;2023-02-20T09:15:35;99137.69;;;3.09;67.09
57000;BME280;42891;50.006;21.964;2023-02-20T09:19:39;99122.03;;;3.09;67.14
57000;BME280;42891;50.006;21.964;2023-02-20T09:23:39;99114.44;;;3.20;65.45
57000;BME280;42891;50.006;21.964;2023-02-20T09:27:39;99105.94;;;3.32;65.97
57000;BME280;42891;50.006;21.964;2023-02-20T09:31:40;99113.97;;;3.44;64.71
57000;BME280;42891;50.006;21.964;2023-02-20T09:35:40;99099.56;;;3.52;63.86
57000;BME280;42891;50.006;21.964;2023-02-20T09:39:40;99100.38;;;3.83;63.62
57000;BME280;42891;50.006;21.964;2023-02-20T09:43:50;99106.94;;;3.90;64.20
57000;BME280;42891;50.006;21.964;2023-02-20T09:48:38;99116.91;;;3.98;62.95
57000;BME280;42891;50.006;21.964;2023-02-20T09:52:43;99089.75;;;4.01;62.85
57000;BME280;42891;50.006;21.964;2023-02-20T09:56:52;99066.72;;;3.93;62.14
57000;BME280;42891;50.006;21.964;2023-02-20T10:00:58;99056.72;;;3.85;60.78
57000;BME280;42891;50.006;21.964;2023-02-20T10:05:22;99010.72;;;3.83;60.93
57000;BME280;42891;50.006;21.964;2023-02-20T10:09:24;99026.31;;;4.13;61.34
57000;BME280;42891;50.006;21.964;2023-02-20T10:14:09;99042.63;;;4.31;61.25
57000;BME280;42891;50.006;21.964;2023-02-20T10:18:13;99026.22;;;4.15;58.98
57000;BME280;42891;50.006;21.964;2023-02-20T10:26:25;99040.56;;;4.22;60.00
57000;BME280;42891;50.006;21.964;2023-02-20T10:39:08;99005.47;;;4.26;60.58
57000;BME280;42891;50.006;21.964;2023-02-20T10:43:34;99005.41;;;4.28;60.11
57000;BME280;42891;50.006;21.964;2023-02-20T10:48:06;98981.22;;;4.24;60.37
57000;BME280;42891;50.006;21.964;2023-02-20T10:52:11;98977.69;;;4.52;61.43
57000;BME280;42891;50.006;21.964;2023-02-20T11:00:33;98969.91;;;4.65;59.81
57000;BME280;42891;50.006;21.964;2023-02-20T11:04:38;98961.75;;;4.70;59.86
57000;BME280;42891;50.006;21.964;2023-02-20T11:08:40;98956.19;;;4.61;61.12
57000;BME280;42891;50.006;21.964;2023-02-20T11:12:48;98901.53;;;4.17;61.38
57000;BME280;42891;50.006;21.964;2023-02-20T11:16:57;98937.63;;;4.52;62.06
57000;BME280;42891;50.006;21.964;2023-02-20T11:20:59;98912.50;;;4.49;64.25
57000;BME280;42891;50.006;21.964;2023-02-20T11:25:19;98907.88;;;4.40;66.82
57000;BME280;42891;50.006;21.964;2023-02-20T11:29:21;98870.69;;;4.22;67.58
57000;BME280;42891;50.006;21.964;2023-02-20T11:33:24;98880.34;;;4.34;67.93
57000;BME280;42891;50.006;21.964;2023-02-20T11:37:29;98884.00;;;4.32;69.39
57000;BME280;42891;50.006;21.964;2023-02-20T11:41:33;98875.66;;;4.12;72.28
57000;BME280;42891;50.006;21.964;2023-02-20T11:45:36;98887.59;;;4.16;74.33
57000;BME280;42891;50.006;21.964;2023-02-20T11:49:36;98850.97;;;4.31;74.76
57000;BME280;42891;50.006;21.964;2023-02-20T11:53:37;98852.84;;;4.01;78.11
57000;BME280;42891;50.006;21.964;2023-02-20T11:57:42;98835.16;;;4.19;78.52
57000;BME280;42891;50.006;21.964;2023-02-20T12:01:43;98817.53;;;3.96;80.24
57000;BME280;42891;50.006;21.964;2023-02-20T12:05:45;98806.00;;;3.98;82.24
57000;BME280;42891;50.006;21.964;2023-02-20T12:09:49;98806.88;;;3.84;84.76
57000;BME280;42891;50.006;21.964;2023-02-20T12:13:52;98810.84;;;4.04;86.11
57000;BME280;42891;50.006;21.964;2023-02-20T12:22:23;98777.91;;;3.74;88.98
57000;BME280;42891;50.006;21.964;2023-02-20T12:26:54;98784.03;;;3.88;91.64
57000;BME280;42891;50.006;21.964;2023-02-20T12:35:33;98766.47;;;3.90;92.91
57000;BME280;42891;50.006;21.964;2023-02-20T12:43:52;98757.97;;;3.46;94.06
57000;BME280;42891;50.006;21.964;2023-02-20T12:48:45;98747.66;;;3.57;95.60
57000;BME280;42891;50.006;21.964;2023-02-20T12:53:03;98743.97;;;3.74;95.13
57000;BME280;42891;50.006;21.964;2023-02-20T13:01:40;98698.81;;;3.32;95.90
57000;BME280;42891;50.006;21.964;2023-02-20T13:05:46;98680.47;;;3.47;96.07
57000;BME280;42891;50.006;21.964;2023-02-20T13:10:12;98642.41;;;3.30;96.21
57000;BME280;42891;50.006;21.964;2023-02-20T13:22:20;98604.16;;;3.43;95.89
57000;BME280;42891;50.006;21.964;2023-02-20T13:30:33;98574.72;;;3.54;94.58
57000;BME280;42891;50.006;21.964;2023-02-20T13:34:36;98585.09;;;3.81;93.37
57000;BME280;42891;50.006;21.964;2023-02-20T13:38:37;98578.84;;;3.84;91.83
57000;BME280;42891;50.006;21.964;2023-02-20T13:42:37;98549.56;;;3.79;91.57
57000;BME280;42891;50.006;21.964;2023-02-20T13:46:58;98528.06;;;3.88;90.06
57000;BME280;42891;50.006;21.964;2023-02-20T13:55:23;98486.13;;;4.02;89.32
57000;BME280;42891;50.006;21.964;2023-02-20T13:59:26;98468.91;;;4.00;89.14
57000;BME280;42891;50.006;21.964;2023-02-20T14:03:29;98482.16;;;4.22;88.22
57000;BME280;42891;50.006;21.964;2023-02-20T14:07:38;98454.09;;;4.24;87.78
57000;BME280;42891;50.006;21.964;2023-02-20T14:11:42;98438.03;;;4.18;86.71
57000;BME280;42891;50.006;21.964;2023-02-20T14:15:55;98457.34;;;4.28;85.62
57000;BME280;42891;50.006;21.964;2023-02-20T14:19:59;98449.75;;;4.25;86.37
57000;BME280;42891;50.006;21.964;2023-02-20T14:24:16;98433.19;;;4.24;86.28
57000;BME280;42891;50.006;21.964;2023-02-20T14:28:18;98417.22;;;4.16;86.35
57000;BME280;42891;50.006;21.964;2023-02-20T14:32:18;98430.81;;;4.21;85.78
57000;BME280;42891;50.006;21.964;2023-02-20T14:36:20;98461.06;;;4.37;84.74
57000;BME280;42891;50.006;21.964;2023-02-20T14:40:33;98427.63;;;4.05;85.72
57000;BME280;42891;50.006;21.964;2023-02-20T14:44:35;98324.75;;;3.95;86.43
57000;BME280;42891;50.006;21.964;2023-02-20T14:48:36;98365.31;;;4.12;85.34
57000;BME280;42891;50.006;21.964;2023-02-20T14:52:40;98334.59;;;4.15;85.82
57000;BME280;42891;50.006;21.964;2023-02-20T14:56:40;98307.50;;;4.16;85.27
57000;BME280;42891;50.006;21.964;2023-02-20T15:00:42;98367.66;;;4.28;85.00
57000;BME280;42891;50.006;21.964;2023-02-20T15:04:54;98328.19;;;4.19;84.12
57000;BME280;42891;50.006;21.964;2023-02-20T15:08:58;98331.78;;;4.30;83.74
57000;BME280;42891;50.006;21.964;2023-02-20T15:13:10;98303.16;;;4.28;83.61
57000;BME280;42891;50.006;21.964;2023-02-20T15:21:12;98279.31;;;4.44;83.40
57000;BME280;42891;50.006;21.964;2023-02-20T15:29:26;98255.91;;;4.42;82.67
57000;BME280;42891;50.006;21.964;2023-02-20T15:33:28;98261.38;;;4.51;81.48
57000;BME280;42891;50.006;21.964;2023-02-20T15:37:32;98240.59;;;4.60;80.89
57000;BME280;42891;50.006;21.964;2023-02-20T15:41:32;98223.84;;;4.52;80.06
57000;BME280;42891;50.006;21.964;2023-02-20T15:45:32;98197.34;;;4.68;78.51
57000;BME280;42891;50.006;21.964;2023-02-20T15:49:34;98188.06;;;4.64;78.04
57000;BME280;42891;50.006;21.964;2023-02-20T15:53:35;98202.94;;;4.63;77.74
57000;BME280;42891;50.006;21.964;2023-02-20T15:57:35;98131.75;;;4.71;77.27
57000;BME280;42891;50.006;21.964;2023-02-20T16:01:36;98154.22;;;4.73;76.86
57000;BME280;42891;50.006;21.964;2023-02-20T16:05:36;98159.09;;;4.67;76.61
57000;BME280;42891;50.006;21.964;2023-02-20T16:09:37;98135.78;;;4.86;76.18
57000;BME280;42891;50.006;21.964;2023-02-20T16:13:38;98126.63;;;4.81;76.08
57000;BME280;42891;50.006;21.964;2023-02-20T16:17:39;98160.50;;;4.82;75.92
57000;BME280;42891;50.006;21.964;2023-02-20T16:21:40;98149.53;;;5.00;75.47
57000;BME280;42891;50.006;21.964;2023-02-20T16:25:41;98180.47;;;5.06;75.64
57000;BME280;42891;50.006;21.964;2023-02-20T16:29:41;98210.53;;;5.11;75.47
57000;BME280;42891;50.006;21.964;2023-02-20T16:33:41;98208.16;;;5.08;75.26
57000;BME280;42891;50.006;21.964;2023-02-20T16:37:42;98195.56;;;5.02;75.27
57000;BME280;42891;50.006;21.964;2023-02-20T16:41:42;98202.09;;;5.19;74.96
57000;BME280;42891;50.006;21.964;2023-02-20T16:45:43;98219.44;;;5.20;75.57
57000;BME280;42891;50.006;21.964;2023-02-20T16:49:43;98248.94;;;5.34;75.53
57000;BME280;42891;50.006;21.964;2023-02-20T16:53:44;98250.28;;;5.17;75.53
57000;BME280;42891;50.006;21.964;2023-02-20T16:57:44;98246.81;;;5.39;75.76
57000;BME280;42891;50.006;21.964;2023-02-20T17:01:44;98231.44;;;5.34;75.53
57000;BME280;42891;50.006;21.964;2023-02-20T17:05:44;98252.25;;;5.36;75.61
57000;BME280;42891;50.006;21.964;2023-02-20T17:09:45;98250.34;;;5.49;75.36
57000;BME280;42891;50.006;21.964;2023-02-20T17:13:45;98269.03;;;5.44;75.63
57000;BME280;42891;50.006;21.964;2023-02-20T17:17:46;98240.94;;;5.46;75.69
57000;BME280;42891;50.006;21.964;2023-02-20T17:21:48;98249.88;;;5.44;75.66
57000;BME280;42891;50.006;21.964;2023-02-20T17:25:48;98241.03;;;5.56;75.27
57000;BME280;42891;50.006;21.964;2023-02-20T17:29:49;98238.78;;;5.52;75.55
57000;BME280;42891;50.006;21.964;2023-02-20T17:33:50;98248.16;;;5.66;75.80
57000;BME280;42891;50.006;21.964;2023-02-20T17:37:50;98240.25;;;5.77;75.66
57000;BME280;42891;50.006;21.964;2023-02-20T17:41:52;98240.88;;;5.80;75.56
57000;BME280;42891;50.006;21.964;2023-02-20T17:45:53;98191.91;;;5.49;75.84
57000;BME280;42891;50.006;21.964;2023-02-20T17:49:54;98219.38;;;5.87;75.57
57000;BME280;42891;50.006;21.964;2023-02-20T17:53:55;98218.31;;;5.89;75.58
57000;BME280;42891;50.006;21.964;2023-02-20T17:57:55;98214.75;;;5.90;75.45
57000;BME280;42891;50.006;21.964;2023-02-20T18:01:55;98206.88;;;5.90;75.64
57000;BME280;42891;50.006;21.964;2023-02-20T18:05:55;98222.94;;;5.97;76.10
57000;BME280;42891;50.006;21.964;2023-02-20T18:09:56;98220.78;;;6.02;76.27
57000;BME280;42891;50.006;21.964;2023-02-20T18:13:56;98212.56;;;6.07;76.96
57000;BME280;42891;50.006;21.964;2023-02-20T18:17:57;98209.81;;;6.08;76.96
57000;BME280;42891;50.006;21.964;2023-02-20T18:21:58;98196.38;;;6.23;76.93
57000;BME280;42891;50.006;21.964;2023-02-20T18:25:58;98202.94;;;6.38;77.62
57000;BME280;42891;50.006;21.964;2023-02-20T18:29:58;98200.56;;;6.56;76.74
57000;BME280;42891;50.006;21.964;2023-02-20T18:33:59;98194.13;;;6.91;76.02
57000;BME280;42891;50.006;21.964;2023-02-20T18:38:04;98177.03;;;7.07;75.61
57000;BME280;42891;50.006;21.964;2023-02-20T18:42:08;98184.13;;;7.36;74.72
57000;BME280;42891;50.006;21.964;2023-02-20T18:46:09;98169.09;;;7.38;74.02
57000;BME280;42891;50.006;21.964;2023-02-20T18:50:10;98170.91;;;7.57;74.03
57000;BME280;42891;50.006;21.964;2023-02-20T18:54:15;98146.41;;;7.56;73.91
57000;BME280;42891;50.006;21.964;2023-02-20T18:58:16;98177.00;;;7.87;73.55
57000;BME280;42891;50.006;21.964;2023-02-20T19:02:16;98143.09;;;7.93;72.95
57000;BME280;42891;50.006;21.964;2023-02-20T19:10:27;98133.78;;;8.09;73.10
57000;BME280;42891;50.006;21.964;2023-02-20T19:14:27;98113.03;;;8.15;73.07
57000;BME280;42891;50.006;21.964;2023-02-20T19:18:27;98132.00;;;8.19;73.14
57000;BME280;42891;50.006;21.964;2023-02-20T19:22:28;98130.59;;;8.25;72.60
57000;BME280;42891;50.006;21.964;2023-02-20T19:26:31;98115.59;;;8.35;72.47
57000;BME280;42891;50.006;21.964;2023-02-20T19:30:32;98118.09;;;8.36;72.42
57000;BME280;42891;50.006;21.964;2023-02-20T19:34:33;98105.34;;;8.42;72.43
57000;BME280;42891;50.006;21.964;2023-02-20T19:38:33;98109.09;;;8.39;72.03
57000;BME280;42891;50.006;21.964;2023-02-20T19:42:34;98106.44;;;8.49;71.98
57000;BME280;42891;50.006;21.964;2023-02-20T19:46:35;98103.63;;;8.60;71.57
57000;BME280;42891;50.006;21.964;2023-02-20T19:50:35;98095.06;;;8.58;71.92
57000;BME280;42891;50.006;21.964;2023-02-20T19:54:36;98101.53;;;8.64;71.61
57000;BME280;42891;50.006;21.964;2023-02-20T19:58:37;98102.34;;;8.64;71.37
57000;BME280;42891;50.006;21.964;2023-02-20T20:02:39;98104.03;;;8.65;71.54
57000;BME280;42891;50.006;21.964;2023-02-20T20:06:39;98088.78;;;8.69;71.56
57000;BME280;42891;50.006;21.964;2023-02-20T20:10:40;98102.31;;;8.74;71.54
57000;BME280;42891;50.006;21.964;2023-02-20T20:14:40;98076.44;;;8.69;70.75
57000;BME280;42891;50.006;21.964;2023-02-20T20:18:42;98078.16;;;8.89;71.21
57000;BME280;42891;50.006;21.964;2023-02-20T20:22:43;98073.41;;;8.92;70.58
57000;BME280;42891;50.006;21.964;2023-02-20T20:26:44;98070.34;;;8.97;70.69
57000;BME280;42891;50.006;21.964;2023-02-20T20:30:44;98056.16;;;8.98;69.95
57000;BME280;42891;50.006;21.964;2023-02-20T20:34:49;98059.13;;;9.13;69.78
57000;BME280;42891;50.006;21.964;2023-02-20T20:38:51;98057.31;;;9.13;69.29
57000;BME280;42891;50.006;21.964;2023-02-20T20:42:52;98035.25;;;9.14;69.42
57000;BME280;42891;50.006;21.964;2023-02-20T20:46:52;98024.34;;;9.09;69.08
57000;BME280;42891;50.006;21.964;2023-02-20T20:50:53;98026.25;;;9.17;68.76
57000;BME280;42891;50.006;21.964;2023-02-20T20:54:55;98047.84;;;9.20;68.92
57000;BME280;42891;50.006;21.964;2023-02-20T20:58:55;98000.81;;;9.08;68.26
57000;BME280;42891;50.006;21.964;2023-02-20T21:02:56;98021.72;;;9.27;68.08
57000;BME280;42891;50.006;21.964;2023-02-20T21:06:56;97996.06;;;9.11;67.95
57000;BME280;42891;50.006;21.964;2023-02-20T21:10:56;98007.06;;;9.25;68.17
57000;BME280;42891;50.006;21.964;2023-02-20T21:14:57;97972.84;;;9.07;67.81
57000;BME280;42891;50.006;21.964;2023-02-20T21:18:57;97988.25;;;9.19;68.01
57000;BME280;42891;50.006;21.964;2023-02-20T21:22:58;98000.34;;;9.30;67.58
57000;BME280;42891;50.006;21.964;2023-02-20T21:26:59;97990.09;;;9.27;68.03
57000;BME280;42891;50.006;21.964;2023-02-20T21:30:59;98000.50;;;9.29;67.97
57000;BME280;42891;50.006;21.964;2023-02-20T21:34:59;97971.75;;;9.17;67.89
57000;BME280;42891;50.006;21.964;2023-02-20T21:38:59;97960.94;;;9.20;67.20
57000;BME280;42891;50.006;21.964;2023-02-20T21:43:00;97973.69;;;9.33;67.26
57000;BME280;42891;50.006;21.964;2023-02-20T21:47:19;97996.78;;;9.39;67.26
57000;BME280;42891;50.006;21.964;2023-02-20T21:51:19;97973.59;;;9.43;67.34
57000;BME280;42891;50.006;21.964;2023-02-20T21:55:20;98002.13;;;9.48;68.04
57000;BME280;42891;50.006;21.964;2023-02-20T21:59:20;97983.09;;;9.36;67.88
57000;BME280;42891;50.006;21.964;2023-02-20T22:03:21;98023.50;;;9.45;67.89
57000;BME280;42891;50.006;21.964;2023-02-20T22:07:21;97963.75;;;9.27;68.45
57000;BME280;42891;50.006;21.964;2023-02-20T22:11:40;97979.50;;;9.37;68.42
57000;BME280;42891;50.006;21.964;2023-02-20T22:15:58;97973.53;;;9.35;68.06
57000;BME280;42891;50.006;21.964;2023-02-20T22:20:17;97973.63;;;9.25;68.40
57000;BME280;42891;50.006;21.964;2023-02-20T22:24:36;98000.94;;;9.42;68.90
57000;BME280;42891;50.006;21.964;2023-02-20T22:28:55;97967.47;;;9.34;68.87
57000;BME280;42891;50.006;21.964;2023-02-20T22:33:14;97997.25;;;9.35;69.47
57000;BME280;42891;50.006;21.964;2023-02-20T22:37:33;97990.09;;;9.27;69.68
57000;BME280;42891;50.006;21.964;2023-02-20T22:41:53;97988.63;;;9.25;69.83
57000;BME280;42891;50.006;21.964;2023-02-20T22:46:12;98007.25;;;9.31;69.88
57000;BME280;42891;50.006;21.964;2023-02-20T22:50:31;98000.41;;;9.38;70.34
57000;BME280;42891;50.006;21.964;2023-02-20T22:54:50;97974.25;;;9.19;70.95
57000;BME280;42891;50.006;21.964;2023-02-20T22:59:09;98012.19;;;9.26;70.94